Terminal Aerodrome Forecast
Issued by NWS Omaha/Valley, NE

Home | Current Version | Previous Version | Text Only | Print | Product List | Glossary On
Versions: 1 2 3 4 5 6 7 8 9 10 11 12 13 14 15
000
FTUS43 KOAX 240520
TAFOMA
TAF
KOMA 240520Z 2406/2506 16012KT P6SM SCT250
     FM241600 17014G22KT P6SM SCT150
     FM242100 15014KT P6SM SCT050 BKN100
     FM250300 15010KT P6SM VCTS OVC050CB=

USA.gov is the U.S. government's official web portal to all federal, state and local government web resources and services.